Timeline UpdatesTrip UpdatesNews PostsPvt PostsTravel TipsAdmin PostsConv PostsFollowed PostsChat RequestsBlog PostsPNR Posts

Disclaimer
Search
 
 
Thu Apr 24, 2014 21:47:47 ISTHomeTrainsΣChainsAtlasPNRForumGalleryNewsFAQTripsMembersLoginFeedback
No Recent News for this Train
Other Trains in the News **new
Latest...
Diversion of Trains o­n 25/26.09.2013:::: The 18238 Amritsar- Bilaspur Chattisgarh Express train will be diverted to run via Tapri- Shamli- Delhi Shahadra- Tilak Bridge.
Tue Sep 24, 2013 (07:42PM)
⇐ Return Journey: Train# 18237

18238/Chhattisgarh Express

Sep 16 2013 (7:54PM)
Change Departure Station:
Change Arrival Station:
Post a Train Travel TipPost a Train Travel Tip **new
Post a Comment/Question/Picture/VideoPost a Comment/Question/Picture/Video
Inaugural Run
Sat Jan 01, 1977
Pantry/Catering
✓ Pantry Car Avbl
✓ Catering Avbl
Loco/Rake Reversals
NGP/Nagpur Junction (9);
RSA - Rake Sharing
0
Rake/Coach Composition
LOCO-SP1-SLR-GS-S1-S2-S3-S4-S5-S6-S7-S8-S9-S10-PC-S11-S12-B3-B2-B1-A1-HA1-GS-SLR
Loco
ASR - NZM ---- TKD WDP4 NZM - NGP --- AJNI...
Read more...
WAP7 NGP - BSP --- ET WAP4 Author: Mahesh Gupta Entry# 295348
News    PNR    Forum    Time-Table    Availability    Fare Chart    Map    Arr/Dep History    Trips    Gallery    ΣChains    X/O    Timeline    
Travel Time: 6h 24m    11 halts    Distance: 283 km    Avg Speed: 44 km/hr
Type: Mail/Express
Zone: SECR/South East Central
Departs @ 05:56 (Avg 27m late)
Platform# ???
SMTWTFS
Gondia Junction/G 
Arrives @ 12:20 (Avg 11m late)
Platform# 8
SMTWTFS
Bilaspur Junction/BSP 

11 halts. 38 intermediate Stations between Gondia Junction and Bilaspur Junction

Show ALL intermediate Stations  Show Old Time-Table

#CodeStation NameX/OArrivesAvgDepartsAvgHaltPFDay#KmSpeedElevZoneAddress
1ASRAmritsar Junction (5)  -16:15+321-1728.377233mNRAmritsar 143002, Punjab
2JNLJandiala (2)  16:30+1216:32+122m21-1709.280238mNRJandiala, Punjab
3BEASBeas Junction (2)  16:50+1516:52+152m21-1685.361238mNRBeas, Punjab
4KREKartarpur (2)X  17:13+1417:15+142m11-1663.968236mNRKartarpur, Punjab
5JUCJalandhar City Junction (5)X  17:28+1717:35+207m21-1649.222239mNRJalandhar 144001, Punjab
6JRCJalandhar Cantt. Junction (3)X  17:48+1617:50+262m21-1644.465239mNRNear Rama Mandi, Punjab
7PGWPhagwara Junction (3)X  18:05+2718:07+272m11-1628.142245mNRPhagwara, Punjab
8GRYGoraya (2)XO  18:21+2518:23+282m11-1618.233240mNRGoraya, Punjab
9PHRPhillaur Junction (3)  18:46+1818:48+182m11-1605.546246mNRPhillaur, Punjab
10LDHLudhiana Junction (7)X  19:05+1819:15+1810m11-1592.422246mNRLudhiana 141001, Punjab
11SNLSanehwal (3)X  19:56+119:58+42m21-1577.349260mNRLudhiana, Punjab
12DOADoraha (2)X  20:07+820:08+101m21-1569.957261mNRDoraha, Punjab
13CHAChawapail (2)  20:18+1020:20+102m21-1560.566267mNRLudhiana, Punjab
14KNNKhanna (3)  20:30+1220:32+122m21-1549.654269mNRNH 1, Punjab
15GVGMandi Gobindgarh (2)  20:41+1220:43+122m21-1541.549268mNRMandi Gobindgarh, Punjab
16SIRSirhind Junction (3)  20:55+1220:57+122m21-1531.765271mNRSirhind, Punjab
17RPJRajpura Junction (3)X  21:20+1321:22+142m21-1506.953272mNRNH-1, Punjab
18UBCAmbala City (3)X  21:45+921:46+111m11-1486.421273mNRNH-1, Haryana
19UMBAmbala Cantt. Junction (7)X  22:08+1022:20+1012m21-1478.868278mNRAmbala 133001, Haryana
20RAABarara (2)  22:42+1222:44+122m11-1454.071279mNRBarara, Haryana
21JUDWJagadhri Workshop (2)  23:02+1423:04+142m11-1432.843280mNRRailway Workshop Road, Haryana
22JUDYamunanagar-Jagadhri (3)  23:11+1523:13+152m21-1427.835275mNRYamunanagar, Haryana
23SRESaharanpur Junction (6)X  00:05+200:15+210m32-1397.668276mNRSaharanpur, Uttar Pradesh
24DBDDeoband (2)  00:45+1300:47+142m12-1363.476258mNRSaharanpur, Uttar Pradesh
25MOZMuzaffarnagar (3)  01:06+1701:08+182m12-1339.451247mNRMuzaffarNagar, Uttar Pradesh
26KATKhatauli (2)X  01:34+1301:36+192m--2-1317.354239mNRKhatauli, Uttar Pradesh
27DRLADaurala (1)  01:56+1801:58+182m12-1299.361232mNRMeerut, Uttar Pradesh
28MUTMeerut Cantt. (2)  02:09+2002:11+202m12-1288.229230mNRMeerut, Uttar Pradesh
29MTCMeerut City Junction (6)  02:20+1902:25+175m22-1283.883229mNRMeerut, Uttar Pradesh
30MDNRModinagar (2)  02:39+2002:41+202m--2-1264.478221mNRGhaziabad, Uttar Pradesh
31GUHGuldhar (2)  02:55+2102:57+212m--2-1246.319224mNRGhaziabad, Uttar Pradesh
32GZBGhaziabad Junction (6)  03:28+903:30+102m32-1236.640217mNRGhaziabad, Uttar Pradesh
33SBBSahibabad Junction (5)  03:40+1403:41+141m--2-1229.928209mNRGhaziabad, Uttar Pradesh
34NZMDelhi Hazrat Nizamuddin (7)X04:15+904:40+925m22-1213.960209mNRNizamuddin East/Sarai KaleKhan Bus Terminal, Delhi NCT
35BVHBallabgarh (5)X  05:09+905:11+92m42-1185.042203mNRFaridabad, Haryana
36PWLPalwal (8)X  05:41+105:43+52m42-1163.885200mNRPalwal, Haryana
37KSVKosi Kalan (3)X  06:13+906:15+92m22-1121.456189mNCRKosi Kalan, Uttar Pradesh
38CHJChata (4)X  06:26+1006:28+102m12-1111.169185mNCRChhata, Uttar Pradesh
39MTJMathura Junction (10)X  06:55+1307:00+125m12-1079.962179mNCRMathura, Uttar Pradesh
40RKMRaja Ki Mandi (4)XO  07:48+2707:50+272m22-1030.26170mNCRAgra, Uttar Pradesh
41AGCAgra Cantt. (6)X  08:30+508:40+610m12-1026.279174mNCRAgra, Uttar Pradesh
42DHODholpur Junction (3)X  09:20+1409:22+322m22-973.670177mNCRDholpur, Rajasthan
43MRAMorena (3)X  09:45+3709:50+385m12-946.872176mNCRMorena, Madhya Pradesh
44BAOBanmorXO  10:06+4010:08+442m--2-927.531189mNCRGwalior, Madhya Pradesh
45GWLGwalior Junction (4)XO  10:45+3910:50+415m12-908.263214mNCRGwalior, Madhya Pradesh
46DBADabra (3)  11:30+4311:32+432m32-865.963204mNCRDabra(District-Gwalior), Madhya Pradesh
47SORSonagirO  11:50+4311:52+472m--2-847.130211mNCRDatia, Madhya Pradesh
48DAADatia (2)X  12:15+3912:17+392m--2-835.628264mNCRDatia, Madhya Pradesh
49JHSJhansi Junction (7)  13:10+2013:20+2610m--2-810.561259mNCRJhansi, Uttar Pradesh
50BABBabina (3)  13:45+3313:47+332m12-785.060285mNCRBabina, Uttar Pradesh
51BZYBasai (3)X  13:59+3614:01+372m12-772.948287mNCR07522289600(Gate ManMob. - 9452701575), Madhya Pradesh
52TBTTalbahat (4)  14:17+3514:19+382m22-760.183314mNCRKhaniyadhana Station Rd, Madhya Pradesh
53LARLalitpur (3)  14:48+4114:50+432m12-720.285373mNCRLalitpur, Uttar Pradesh
54DUADhaura (3)XO  15:10+4715:12+482m--2-691.928407mNCRDhaura Tanda, Madhya Pradesh
55BINABina Junction (5)X  16:25+2216:30+255m22-657.369414mWCRJn Pt - KATNI/GUNA/ BPL/JHS, Madhya Pradesh
56MABAMandi Bamora (3)XO  16:45+3016:47+312m22-640.178413mWCRState Highway 14, Madhya Pradesh
57BAQGanj Basoda (4)  17:09+3217:11+332m22-611.584416mWCRVidisha, Madhya Pradesh
58BHSVidisha (3)X  17:39+3817:41+382m22-572.254432mWCRVidisha, Madhya Pradesh
59BPLBhopal Junction (6)X  18:40+3318:45+355m12-518.738497mWCRBhopal, Madhya Pradesh
60HBJBhopal HabibGanj (5)  18:55+3818:57+382m--2-512.577496mWCRHabibGanj, Madhya Pradesh
61ODGObaidulla GanjX  19:20+4019:22+422m--2-482.833450mWCRObaidullaganj Raisen Dist., Madhya Pradesh
62HBDHoshangabad (4)XO  20:30+3220:32+332m22-445.129308mWCRHoshangabad, Madhya Pradesh
63ETItarsi Junction (7)  21:10+3121:15+345m32-427.068329mWCRItarsi 461111, Madhya Pradesh
64GDYAGhoradongri (3)X  22:17+4122:19+422m--2-356.650410mCRBetul, Madhya Pradesh
65BZUBetul (3)  23:02+4023:05+403m--2-320.746644mCRBetul, Madhya Pradesh
66AMLAAmla Junction (5)  23:35+3300:10+2335m--2-297.898733mCRAmla Distt. Betul, Madhya Pradesh
67MTYMultai (2)  00:24+2700:26+282m--3-275.058762mCRMultai, Madhya Pradesh
68PARPandhurna (2)  01:08+3101:10+312m13-234.285481mCRDistt: Chhindwara, Madhya Pradesh
69NRKRNarkher Junction (3)X  01:23+3401:25+342m--3-215.966411mCRNarkher, Maharashtra
70KATLKatol (2)X  01:48+3001:50+302m--3-190.736415mCRKatol, Maharashtra
71NGPNagpur Junction (9)03:30+603:55+825m63-129.948314mCRNagpur 440001, Maharashtra
72KPKamptee (3)X  04:13+1604:15+182m--3-115.596290mSECRMH 441001, Maharashtra
73BRDBhandara Road (2)X  04:45+2604:47+272m23-67.677266mSECRState Highway 252, Maharashtra
74TMRTumsar Road (3)  05:01+2705:03+272m--3-49.781267mSECRBhandara, Maharashtra
75TROTirora (3)  05:18+3105:20+332m--3-29.357282mSECRDist Gondiya, Maharashtra
76Gondia Junction (7)»X  05:51+2805:56+275m--30.098316mSECRGondia 441601, Maharashtra
77AGNAmgaon (2)  06:10+3106:12+312m--322.880317mSECRGondia, Maharashtra
78SKSSalekasa (2)X  06:23+3306:25+332m--337.556312mSECRRajnandgaon, Chhattisgarh
79DGGDongargarh (2)  07:03+3207:05+332m--373.363353mSECRDongargarh, Chhattisgarh
80RJNRaj Nandgaon (3)  07:35+2907:40+285m--3104.830313mSECRRajnandgaon, Chhattisgarh
81DURGDurg Junction (6)X  08:40+908:55+915m--3135.360299mSECRPh: 91-788-2322059, Chhattisgarh
82BPHBBhilai Power House (3)X  09:04+1309:06+132m--3144.243312mSECRBhilai, Chhattisgarh
83RRaipur Junction (6)  09:45+1209:55+1710m53172.269297mSECRRaipur, Chhattisgarh
84TLDTilda (3)X  10:28+2610:30+262m--3210.449291mSECRBanjari Rd, Chhattisgarh
85HNHathbandhX  10:43+2410:45+232m--3221.171283mSECRRaipur, Chhattisgarh
86BYTBhatapara (4)X  10:58+2411:00+242m--3236.561270mSECRBanjari Road, Chhattisgarh
87BYLBelhaX  11:30+1811:32+172m--3267.119269mSECRCollege Road, Chhattisgarh
88BSP•Bilaspur Junction (8)•  12:20+11-83282.6-271mSECRBilaspur, Chhattisgarh
Scroll to Top
Scroll to Bottom